Etusivu
METAR-TAF:

METAR-TAF

Lentoasemat :

Bissau, Guinea-Bissau

Leveyspiiri: 11-53N, Pituuspiiri: 015-39W, korkeus merenpinnasta: 39 m

Tämänhetkinen sää

Tämä raportti tehtiin 1 tunti ja 12 minuuttia sitten, kello 05.00 UTC
tyyntä
Lämpötila 22°C
Kosteus 83%
Ilmanpaine 1009 hPa
Näkyvyys: 7000 m

METAR: GGOV 270500Z 00000KT 7000 NSC 22/19 Q1009 NOSIG

Aika: 06:12 (06:12 UTC)

Sääennuste

Tämä raportti tehtiin 7 tuntia ja 12 minuuttia sitten, kello 23.00 UTC
Ennuste voimassa 27. päivästä klo 00 UTC - 27. päivään klo 24 UTC
Tuuli 3 kn lännestä/luoteesta
Näkyvyys: 8000 m
Tulossa
27. päivästä klo 16 UTC - 27. päivään klo 18 UTC
Tuuli 10 kn etelästä/lounaasta

TAF: GGOV 262300Z 2700/2724 30003KT 8000 NSC BECMG 2716/2718 21010KT

Säähavainnot ja -ennusteet yli 4000 lentoasemalta (METAR- ja TAF-raportit).

Käytössä olevat sääasemat on merkitty karttaan keltaisilla ja punaisilla pisteillä.

Aseta hiiri pisteen päälle nähdäksesi sääaseman nimen.

Klikkaa sitten nähdäksesi säähavainnot ja -ennusteet.

Kartan vaihtaminen: klikkaa mustalla rastilla varustettuja vihreitä pisteitä, niin voit zoomata sisään; viivalla varustettua vihreää pistettä, niin voit zoomata ulos tai vihreitä nuolia, niin pääset viereisille kartoille.


METAR-TAF: